sensor_id;sensor_type;location;lat;lon;timestamp;temperature;humidity
41533;DHT22;27262;-35.248;149.138;2022-09-16T00:02:22;19.60;53.70
41533;DHT22;27262;-35.248;149.138;2022-09-16T00:04:53;19.60;53.70
41533;DHT22;27262;-35.248;149.138;2022-09-16T00:07:23;19.60;53.60
41533;DHT22;27262;-35.248;149.138;2022-09-16T00:09:53;19.60;53.50
41533;DHT22;27262;-35.248;149.138;2022-09-16T00:12:23;19.60;54.30
41533;DHT22;27262;-35.248;149.138;2022-09-16T00:14:54;19.60;53.70
41533;DHT22;27262;-35.248;149.138;2022-09-16T00:17:24;19.60;53.60
41533;DHT22;27262;-35.248;149.138;2022-09-16T00:19:55;19.60;53.60
41533;DHT22;27262;-35.248;149.138;2022-09-16T00:22:27;19.60;53.50
41533;DHT22;27262;-35.248;149.138;2022-09-16T00:24:57;19.60;53.50
41533;DHT22;27262;-35.248;149.138;2022-09-16T00:27:27;19.60;53.50
41533;DHT22;27262;-35.248;149.138;2022-09-16T00:29:58;19.60;53.50
41533;DHT22;27262;-35.248;149.138;2022-09-16T00:32:28;19.60;53.60
41533;DHT22;27262;-35.248;149.138;2022-09-16T00:34:58;19.60;53.50
41533;DHT22;27262;-35.248;149.138;2022-09-16T00:37:31;19.60;53.50
41533;DHT22;27262;-35.248;149.138;2022-09-16T00:40:02;19.60;53.40
41533;DHT22;27262;-35.248;149.138;2022-09-16T00:42:38;19.60;53.40
41533;DHT22;27262;-35.248;149.138;2022-09-16T00:45:16;19.60;53.40
41533;DHT22;27262;-35.248;149.138;2022-09-16T00:47:51;19.60;53.30
41533;DHT22;27262;-35.248;149.138;2022-09-16T00:50:34;19.60;53.20
41533;DHT22;27262;-35.248;149.138;2022-09-16T00:53:16;19.60;52.90
41533;DHT22;27262;-35.248;149.138;2022-09-16T00:55:50;19.60;52.80
41533;DHT22;27262;-35.248;149.138;2022-09-16T00:58:44;19.60;52.70
41533;DHT22;27262;-35.248;149.138;2022-09-16T01:01:15;19.60;52.60
41533;DHT22;27262;-35.248;149.138;2022-09-16T01:03:54;19.60;52.70
41533;DHT22;27262;-35.248;149.138;2022-09-16T01:06:26;19.60;52.30
41533;DHT22;27262;-35.248;149.138;2022-09-16T01:08:57;19.60;52.40
41533;DHT22;27262;-35.248;149.138;2022-09-16T01:11:27;19.60;52.20
41533;DHT22;27262;-35.248;149.138;2022-09-16T01:13:58;19.60;51.70
41533;DHT22;27262;-35.248;149.138;2022-09-16T01:17:15;19.60;51.90
41533;DHT22;27262;-35.248;149.138;2022-09-16T01:19:59;19.70;52.00
41533;DHT22;27262;-35.248;149.138;2022-09-16T01:22:51;19.60;52.10
41533;DHT22;27262;-35.248;149.138;2022-09-16T01:34:18;19.60;51.50
41533;DHT22;27262;-35.248;149.138;2022-09-16T01:42:17;19.60;50.90
41533;DHT22;27262;-35.248;149.138;2022-09-16T01:48:03;19.60;50.80
41533;DHT22;27262;-35.248;149.138;2022-09-16T01:53:58;19.60;50.70
41533;DHT22;27262;-35.248;149.138;2022-09-16T02:00:11;19.60;50.70
41533;DHT22;27262;-35.248;149.138;2022-09-16T02:02:28;19.60;50.60
41533;DHT22;27262;-35.248;149.138;2022-09-16T02:05:04;19.60;50.40
41533;DHT22;27262;-35.248;149.138;2022-09-16T02:07:40;19.60;50.30
41533;DHT22;27262;-35.248;149.138;2022-09-16T02:10:32;19.60;50.20
41533;DHT22;27262;-35.248;149.138;2022-09-16T02:13:14;19.60;50.00
41533;DHT22;27262;-35.248;149.138;2022-09-16T02:15:48;19.50;50.00
41533;DHT22;27262;-35.248;149.138;2022-09-16T02:18:25;19.60;50.10
41533;DHT22;27262;-35.248;149.138;2022-09-16T02:20:57;19.60;49.90
41533;DHT22;27262;-35.248;149.138;2022-09-16T02:23:33;19.60;50.30
41533;DHT22;27262;-35.248;149.138;2022-09-16T02:26:07;19.70;50.30
41533;DHT22;27262;-35.248;149.138;2022-09-16T02:28:41;19.60;50.10
41533;DHT22;27262;-35.248;149.138;2022-09-16T02:31:13;19.70;50.10
41533;DHT22;27262;-35.248;149.138;2022-09-16T02:34:06;19.70;50.00
41533;DHT22;27262;-35.248;149.138;2022-09-16T02:36:41;19.70;49.80
41533;DHT22;27262;-35.248;149.138;2022-09-16T02:39:19;19.70;50.10
41533;DHT22;27262;-35.248;149.138;2022-09-16T02:41:51;19.70;49.80
41533;DHT22;27262;-35.248;149.138;2022-09-16T02:44:24;19.70;50.00
41533;DHT22;27262;-35.248;149.138;2022-09-16T02:47:13;19.70;50.00
41533;DHT22;27262;-35.248;149.138;2022-09-16T02:49:56;19.70;49.70
41533;DHT22;27262;-35.248;149.138;2022-09-16T02:55:49;19.70;50.10
41533;DHT22;27262;-35.248;149.138;2022-09-16T02:58:22;19.70;50.10
41533;DHT22;27262;-35.248;149.138;2022-09-16T03:00:54;19.70;50.20
41533;DHT22;27262;-35.248;149.138;2022-09-16T03:03:26;19.70;50.40
41533;DHT22;27262;-35.248;149.138;2022-09-16T03:08:43;19.80;50.20
41533;DHT22;27262;-35.248;149.138;2022-09-16T03:20:05;19.80;50.40
41533;DHT22;27262;-35.248;149.138;2022-09-16T03:23:18;19.80;50.50
41533;DHT22;27262;-35.248;149.138;2022-09-16T03:26:21;19.80;50.30
41533;DHT22;27262;-35.248;149.138;2022-09-16T03:29:11;19.80;50.60
41533;DHT22;27262;-35.248;149.138;2022-09-16T03:31:57;19.80;50.40
41533;DHT22;27262;-35.248;149.138;2022-09-16T03:34:36;19.80;50.40
41533;DHT22;27262;-35.248;149.138;2022-09-16T03:37:14;19.80;50.30
41533;DHT22;27262;-35.248;149.138;2022-09-16T03:39:50;19.80;50.10
41533;DHT22;27262;-35.248;149.138;2022-09-16T03:42:22;19.80;50.10
41533;DHT22;27262;-35.248;149.138;2022-09-16T03:44:52;19.80;50.00
41533;DHT22;27262;-35.248;149.138;2022-09-16T03:47:23;19.80;50.10
41533;DHT22;27262;-35.248;149.138;2022-09-16T03:49:53;19.80;50.00
41533;DHT22;27262;-35.248;149.138;2022-09-16T03:52:23;19.80;50.10
41533;DHT22;27262;-35.248;149.138;2022-09-16T03:54:54;19.80;50.10
41533;DHT22;27262;-35.248;149.138;2022-09-16T03:57:24;19.80;50.00
41533;DHT22;27262;-35.248;149.138;2022-09-16T03:59:56;19.80;50.10
41533;DHT22;27262;-35.248;149.138;2022-09-16T04:02:26;19.80;50.20
41533;DHT22;27262;-35.248;149.138;2022-09-16T04:04:57;19.80;50.40
41533;DHT22;27262;-35.248;149.138;2022-09-16T04:07:27;19.90;50.50
41533;DHT22;27262;-35.248;149.138;2022-09-16T04:09:57;19.90;50.70
41533;DHT22;27262;-35.248;149.138;2022-09-16T04:12:28;19.90;50.90
41533;DHT22;27262;-35.248;149.138;2022-09-16T04:14:58;19.90;50.90
41533;DHT22;27262;-35.248;149.138;2022-09-16T04:17:31;19.90;51.00
41533;DHT22;27262;-35.248;149.138;2022-09-16T04:20:02;19.90;51.20
41533;DHT22;27262;-35.248;149.138;2022-09-16T04:22:32;19.90;51.70
41533;DHT22;27262;-35.248;149.138;2022-09-16T04:25:02;19.90;51.10
41533;DHT22;27262;-35.248;149.138;2022-09-16T04:27:33;19.90;51.00
41533;DHT22;27262;-35.248;149.138;2022-09-16T04:30:03;19.90;50.80
41533;DHT22;27262;-35.248;149.138;2022-09-16T04:32:34;19.90;50.90
41533;DHT22;27262;-35.248;149.138;2022-09-16T04:35:04;19.90;50.60
41533;DHT22;27262;-35.248;149.138;2022-09-16T04:37:35;19.90;50.60
41533;DHT22;27262;-35.248;149.138;2022-09-16T04:40:05;19.90;50.80
41533;DHT22;27262;-35.248;149.138;2022-09-16T04:42:35;19.90;50.60
41533;DHT22;27262;-35.248;149.138;2022-09-16T04:45:06;19.90;50.80
41533;DHT22;27262;-35.248;149.138;2022-09-16T04:47:36;19.90;51.40
41533;DHT22;27262;-35.248;149.138;2022-09-16T04:50:08;19.90;50.70
41533;DHT22;27262;-35.248;149.138;2022-09-16T04:52:38;19.90;50.70
41533;DHT22;27262;-35.248;149.138;2022-09-16T04:55:09;19.90;50.50
41533;DHT22;27262;-35.248;149.138;2022-09-16T04:57:39;19.90;50.50
41533;DHT22;27262;-35.248;149.138;2022-09-16T05:00:11;19.90;50.60
41533;DHT22;27262;-35.248;149.138;2022-09-16T05:02:43;19.90;50.60
41533;DHT22;27262;-35.248;149.138;2022-09-16T05:05:14;20.00;50.90
41533;DHT22;27262;-35.248;149.138;2022-09-16T05:07:45;19.90;50.30
41533;DHT22;27262;-35.248;149.138;2022-09-16T05:10:15;20.00;50.50
41533;DHT22;27262;-35.248;149.138;2022-09-16T05:12:50;20.00;50.40
41533;DHT22;27262;-35.248;149.138;2022-09-16T05:15:21;20.00;50.30
41533;DHT22;27262;-35.248;149.138;2022-09-16T05:17:51;19.90;50.20
41533;DHT22;27262;-35.248;149.138;2022-09-16T05:20:21;19.90;50.20
41533;DHT22;27262;-35.248;149.138;2022-09-16T05:22:52;19.90;50.00
41533;DHT22;27262;-35.248;149.138;2022-09-16T05:25:22;19.90;50.20
41533;DHT22;27262;-35.248;149.138;2022-09-16T05:27:52;19.90;50.00
41533;DHT22;27262;-35.248;149.138;2022-09-16T05:30:22;19.90;50.30
41533;DHT22;27262;-35.248;149.138;2022-09-16T05:32:53;19.90;50.30
41533;DHT22;27262;-35.248;149.138;2022-09-16T05:35:23;20.00;50.30
41533;DHT22;27262;-35.248;149.138;2022-09-16T05:37:53;20.00;50.30
41533;DHT22;27262;-35.248;149.138;2022-09-16T05:40:24;20.00;50.30
41533;DHT22;27262;-35.248;149.138;2022-09-16T05:42:56;20.10;50.20
41533;DHT22;27262;-35.248;149.138;2022-09-16T05:45:26;20.10;50.10
41533;DHT22;27262;-35.248;149.138;2022-09-16T05:47:59;20.20;50.10
41533;DHT22;27262;-35.248;149.138;2022-09-16T05:50:29;20.20;50.00
41533;DHT22;27262;-35.248;149.138;2022-09-16T05:52:59;20.30;50.10
41533;DHT22;27262;-35.248;149.138;2022-09-16T05:55:30;20.30;49.90
41533;DHT22;27262;-35.248;149.138;2022-09-16T05:58:00;20.40;49.80
41533;DHT22;27262;-35.248;149.138;2022-09-16T06:00:30;20.40;49.80
41533;DHT22;27262;-35.248;149.138;2022-09-16T06:03:00;20.40;49.60
41533;DHT22;27262;-35.248;149.138;2022-09-16T06:05:30;20.50;49.60
41533;DHT22;27262;-35.248;149.138;2022-09-16T06:08:01;20.50;49.50
41533;DHT22;27262;-35.248;149.138;2022-09-16T06:10:37;20.60;49.60
41533;DHT22;27262;-35.248;149.138;2022-09-16T06:13:07;20.60;49.40
41533;DHT22;27262;-35.248;149.138;2022-09-16T06:15:37;20.70;49.30
41533;DHT22;27262;-35.248;149.138;2022-09-16T06:18:08;20.70;49.10
41533;DHT22;27262;-35.248;149.138;2022-09-16T06:20:40;20.80;48.50
41533;DHT22;27262;-35.248;149.138;2022-09-16T06:23:10;20.80;48.70
41533;DHT22;27262;-35.248;149.138;2022-09-16T06:25:41;20.80;48.50
41533;DHT22;27262;-35.248;149.138;2022-09-16T06:28:11;20.90;48.20
41533;DHT22;27262;-35.248;149.138;2022-09-16T06:30:42;20.90;48.10
41533;DHT22;27262;-35.248;149.138;2022-09-16T06:33:12;21.00;48.00
41533;DHT22;27262;-35.248;149.138;2022-09-16T06:35:44;21.00;47.90
41533;DHT22;27262;-35.248;149.138;2022-09-16T06:38:14;21.00;47.80
41533;DHT22;27262;-35.248;149.138;2022-09-16T06:40:58;21.10;47.80
41533;DHT22;27262;-35.248;149.138;2022-09-16T06:43:29;21.10;47.70
41533;DHT22;27262;-35.248;149.138;2022-09-16T06:46:01;21.10;47.40
41533;DHT22;27262;-35.248;149.138;2022-09-16T06:48:33;21.10;48.20
41533;DHT22;27262;-35.248;149.138;2022-09-16T06:51:05;21.20;47.10
41533;DHT22;27262;-35.248;149.138;2022-09-16T06:53:36;21.20;47.00
41533;DHT22;27262;-35.248;149.138;2022-09-16T06:56:08;21.20;47.10
41533;DHT22;27262;-35.248;149.138;2022-09-16T06:58:43;21.30;46.80
41533;DHT22;27262;-35.248;149.138;2022-09-16T07:01:18;21.30;46.80
41533;DHT22;27262;-35.248;149.138;2022-09-16T07:03:51;21.30;46.50
41533;DHT22;27262;-35.248;149.138;2022-09-16T07:06:24;21.30;46.50
41533;DHT22;27262;-35.248;149.138;2022-09-16T07:09:16;21.30;46.20
41533;DHT22;27262;-35.248;149.138;2022-09-16T07:11:46;21.40;46.50
41533;DHT22;27262;-35.248;149.138;2022-09-16T07:14:17;21.40;46.50
41533;DHT22;27262;-35.248;149.138;2022-09-16T07:16:47;21.50;46.60
41533;DHT22;27262;-35.248;149.138;2022-09-16T07:19:17;21.50;46.70
41533;DHT22;27262;-35.248;149.138;2022-09-16T07:21:48;21.50;46.40
41533;DHT22;27262;-35.248;149.138;2022-09-16T07:24:18;21.60;46.40
41533;DHT22;27262;-35.248;149.138;2022-09-16T07:26:48;21.60;46.50
41533;DHT22;27262;-35.248;149.138;2022-09-16T07:29:18;21.60;46.40
41533;DHT22;27262;-35.248;149.138;2022-09-16T07:31:49;21.60;46.30
41533;DHT22;27262;-35.248;149.138;2022-09-16T07:34:19;21.60;46.50
41533;DHT22;27262;-35.248;149.138;2022-09-16T07:36:50;21.60;46.40
41533;DHT22;27262;-35.248;149.138;2022-09-16T07:39:20;21.70;46.40
41533;DHT22;27262;-35.248;149.138;2022-09-16T07:41:50;21.70;46.50
41533;DHT22;27262;-35.248;149.138;2022-09-16T07:44:21;21.70;46.40
41533;DHT22;27262;-35.248;149.138;2022-09-16T07:46:51;21.70;46.40
41533;DHT22;27262;-35.248;149.138;2022-09-16T07:49:21;21.80;46.20
41533;DHT22;27262;-35.248;149.138;2022-09-16T07:51:51;21.80;46.30
41533;DHT22;27262;-35.248;149.138;2022-09-16T07:54:22;21.80;46.20
41533;DHT22;27262;-35.248;149.138;2022-09-16T07:56:52;21.80;46.10
41533;DHT22;27262;-35.248;149.138;2022-09-16T07:59:22;21.80;46.20
41533;DHT22;27262;-35.248;149.138;2022-09-16T08:01:52;21.80;46.20
41533;DHT22;27262;-35.248;149.138;2022-09-16T08:04:22;21.80;46.10
41533;DHT22;27262;-35.248;149.138;2022-09-16T08:06:53;21.80;46.90
41533;DHT22;27262;-35.248;149.138;2022-09-16T08:09:23;21.80;46.30
41533;DHT22;27262;-35.248;149.138;2022-09-16T08:12:06;21.90;46.30
41533;DHT22;27262;-35.248;149.138;2022-09-16T08:14:39;21.80;46.50
41533;DHT22;27262;-35.248;149.138;2022-09-16T08:17:09;21.80;46.50
41533;DHT22;27262;-35.248;149.138;2022-09-16T08:19:40;21.90;46.30
41533;DHT22;27262;-35.248;149.138;2022-09-16T08:22:10;21.90;46.40
41533;DHT22;27262;-35.248;149.138;2022-09-16T08:24:41;21.90;46.30
41533;DHT22;27262;-35.248;149.138;2022-09-16T08:27:11;21.90;46.20
41533;DHT22;27262;-35.248;149.138;2022-09-16T08:29:42;21.90;46.30
41533;DHT22;27262;-35.248;149.138;2022-09-16T08:32:12;21.90;46.30
41533;DHT22;27262;-35.248;149.138;2022-09-16T08:34:42;22.00;46.20
41533;DHT22;27262;-35.248;149.138;2022-09-16T08:37:13;22.00;46.40
41533;DHT22;27262;-35.248;149.138;2022-09-16T08:39:43;22.00;46.30
41533;DHT22;27262;-35.248;149.138;2022-09-16T08:46:08;22.00;46.20
41533;DHT22;27262;-35.248;149.138;2022-09-16T08:51:22;22.00;46.30
41533;DHT22;27262;-35.248;149.138;2022-09-16T08:57:01;22.10;46.10
41533;DHT22;27262;-35.248;149.138;2022-09-16T08:59:35;22.00;46.40
41533;DHT22;27262;-35.248;149.138;2022-09-16T09:05:15;22.10;46.10
41533;DHT22;27262;-35.248;149.138;2022-09-16T09:11:01;22.10;46.70
41533;DHT22;27262;-35.248;149.138;2022-09-16T09:16:33;22.10;47.20
41533;DHT22;27262;-35.248;149.138;2022-09-16T09:27:26;22.10;47.40
41533;DHT22;27262;-35.248;149.138;2022-09-16T09:30:11;22.00;47.30
41533;DHT22;27262;-35.248;149.138;2022-09-16T09:41:58;22.00;47.10
41533;DHT22;27262;-35.248;149.138;2022-09-16T09:47:38;21.90;47.30
41533;DHT22;27262;-35.248;149.138;2022-09-16T10:01:35;21.80;47.30
41533;DHT22;27262;-35.248;149.138;2022-09-16T10:04:24;21.80;47.50
41533;DHT22;27262;-35.248;149.138;2022-09-16T10:06:54;21.80;47.50
41533;DHT22;27262;-35.248;149.138;2022-09-16T10:09:25;21.80;47.60
41533;DHT22;27262;-35.248;149.138;2022-09-16T10:11:56;21.70;47.60
41533;DHT22;27262;-35.248;149.138;2022-09-16T10:14:37;21.70;47.70
41533;DHT22;27262;-35.248;149.138;2022-09-16T10:17:16;21.80;48.20
41533;DHT22;27262;-35.248;149.138;2022-09-16T10:22:29;21.80;47.80
41533;DHT22;27262;-35.248;149.138;2022-09-16T10:25:23;21.80;48.10
41533;DHT22;27262;-35.248;149.138;2022-09-16T10:28:04;21.70;48.10
41533;DHT22;27262;-35.248;149.138;2022-09-16T10:30:57;21.70;48.00
41533;DHT22;27262;-35.248;149.138;2022-09-16T10:33:34;21.80;47.90
41533;DHT22;27262;-35.248;149.138;2022-09-16T10:36:07;21.70;48.60
41533;DHT22;27262;-35.248;149.138;2022-09-16T10:38:40;21.70;48.20
41533;DHT22;27262;-35.248;149.138;2022-09-16T10:41:39;21.70;48.30
41533;DHT22;27262;-35.248;149.138;2022-09-16T10:44:20;21.70;48.30
41533;DHT22;27262;-35.248;149.138;2022-09-16T10:47:23;21.70;48.30
41533;DHT22;27262;-35.248;149.138;2022-09-16T10:50:00;21.70;48.30
41533;DHT22;27262;-35.248;149.138;2022-09-16T10:52:44;21.60;48.40
41533;DHT22;27262;-35.248;149.138;2022-09-16T10:55:33;21.60;48.30
41533;DHT22;27262;-35.248;149.138;2022-09-16T10:58:17;21.60;48.00
41533;DHT22;27262;-35.248;149.138;2022-09-16T11:06:53;21.60;47.90
41533;DHT22;27262;-35.248;149.138;2022-09-16T11:12:38;21.60;47.80
41533;DHT22;27262;-35.248;149.138;2022-09-16T11:19:03;21.50;48.10
41533;DHT22;27262;-35.248;149.138;2022-09-16T11:31:59;21.50;47.80
41533;DHT22;27262;-35.248;149.138;2022-09-16T11:38:13;21.50;47.90
41533;DHT22;27262;-35.248;149.138;2022-09-16T11:57:17;21.40;48.00
41533;DHT22;27262;-35.248;149.138;2022-09-16T11:59:59;21.40;48.10
41533;DHT22;27262;-35.248;149.138;2022-09-16T12:05:22;21.40;48.10
41533;DHT22;27262;-35.248;149.138;2022-09-16T12:10:33;21.50;48.10
41533;DHT22;27262;-35.248;149.138;2022-09-16T12:13:14;21.50;48.10
41533;DHT22;27262;-35.248;149.138;2022-09-16T12:21:14;21.50;48.20
41533;DHT22;27262;-35.248;149.138;2022-09-16T12:23:54;21.40;48.20
41533;DHT22;27262;-35.248;149.138;2022-09-16T12:26:47;21.40;48.20
41533;DHT22;27262;-35.248;149.138;2022-09-16T12:29:25;21.40;48.10
41533;DHT22;27262;-35.248;149.138;2022-09-16T12:32:21;21.40;48.20
41533;DHT22;27262;-35.248;149.138;2022-09-16T12:35:00;21.30;48.00
41533;DHT22;27262;-35.248;149.138;2022-09-16T12:37:49;21.30;48.00
41533;DHT22;27262;-35.248;149.138;2022-09-16T12:40:26;21.20;47.40
41533;DHT22;27262;-35.248;149.138;2022-09-16T12:43:26;21.10;47.50
41533;DHT22;27262;-35.248;149.138;2022-09-16T13:00:35;20.70;48.60
41533;DHT22;27262;-35.248;149.138;2022-09-16T13:03:20;20.70;48.70
41533;DHT22;27262;-35.248;149.138;2022-09-16T13:05:52;20.70;48.70
41533;DHT22;27262;-35.248;149.138;2022-09-16T13:08:32;20.60;48.80
41533;DHT22;27262;-35.248;149.138;2022-09-16T13:11:15;20.60;48.80
41533;DHT22;27262;-35.248;149.138;2022-09-16T13:14:23;20.60;48.90
41533;DHT22;27262;-35.248;149.138;2022-09-16T13:16:58;20.50;49.00
41533;DHT22;27262;-35.248;149.138;2022-09-16T13:27:57;20.40;49.10
41533;DHT22;27262;-35.248;149.138;2022-09-16T13:30:38;20.30;49.20
41533;DHT22;27262;-35.248;149.138;2022-09-16T13:35:42;20.20;49.30
41533;DHT22;27262;-35.248;149.138;2022-09-16T13:40:57;20.20;49.50
41533;DHT22;27262;-35.248;149.138;2022-09-16T13:43:58;20.20;49.60
41533;DHT22;27262;-35.248;149.138;2022-09-16T13:46:34;20.10;49.50
41533;DHT22;27262;-35.248;149.138;2022-09-16T13:51:47;20.00;49.70
41533;DHT22;27262;-35.248;149.138;2022-09-16T13:54:27;20.00;49.70
41533;DHT22;27262;-35.248;149.138;2022-09-16T14:14:59;19.80;50.00
41533;DHT22;27262;-35.248;149.138;2022-09-16T14:17:41;19.70;50.00
41533;DHT22;27262;-35.248;149.138;2022-09-16T14:20:21;19.70;50.00
41533;DHT22;27262;-35.248;149.138;2022-09-16T14:23:03;19.70;50.00
41533;DHT22;27262;-35.248;149.138;2022-09-16T14:25:35;19.70;50.60
41533;DHT22;27262;-35.248;149.138;2022-09-16T14:28:16;19.60;50.00
41533;DHT22;27262;-35.248;149.138;2022-09-16T14:30:57;19.60;50.00
41533;DHT22;27262;-35.248;149.138;2022-09-16T14:36:33;19.50;49.90
41533;DHT22;27262;-35.248;149.138;2022-09-16T14:39:24;19.50;50.00
41533;DHT22;27262;-35.248;149.138;2022-09-16T14:42:00;19.50;50.00
41533;DHT22;27262;-35.248;149.138;2022-09-16T14:44:38;19.40;50.00
41533;DHT22;27262;-35.248;149.138;2022-09-16T14:50:06;19.40;50.10
41533;DHT22;27262;-35.248;149.138;2022-09-16T14:52:37;19.30;50.10
41533;DHT22;27262;-35.248;149.138;2022-09-16T14:55:19;19.30;50.10
41533;DHT22;27262;-35.248;149.138;2022-09-16T14:57:50;19.30;50.10
41533;DHT22;27262;-35.248;149.138;2022-09-16T15:00:21;19.30;50.20
41533;DHT22;27262;-35.248;149.138;2022-09-16T15:02:56;19.20;50.10
41533;DHT22;27262;-35.248;149.138;2022-09-16T15:05:34;19.20;50.10
41533;DHT22;27262;-35.248;149.138;2022-09-16T15:11:03;19.20;50.20
41533;DHT22;27262;-35.248;149.138;2022-09-16T15:13:55;19.20;50.30
41533;DHT22;27262;-35.248;149.138;2022-09-16T15:16:26;19.10;50.30
41533;DHT22;27262;-35.248;149.138;2022-09-16T15:18:59;19.10;50.30
41533;DHT22;27262;-35.248;149.138;2022-09-16T15:21:33;19.10;50.30
41533;DHT22;27262;-35.248;149.138;2022-09-16T15:24:25;19.00;50.30
41533;DHT22;27262;-35.248;149.138;2022-09-16T15:26:58;19.00;50.30
41533;DHT22;27262;-35.248;149.138;2022-09-16T15:29:34;19.00;50.40
41533;DHT22;27262;-35.248;149.138;2022-09-16T15:32:19;18.90;50.30
41533;DHT22;27262;-35.248;149.138;2022-09-16T15:35:27;18.90;50.40
41533;DHT22;27262;-35.248;149.138;2022-09-16T15:38:10;18.90;50.40
41533;DHT22;27262;-35.248;149.138;2022-09-16T15:40:41;18.80;50.50
41533;DHT22;27262;-35.248;149.138;2022-09-16T15:43:17;18.80;50.60
41533;DHT22;27262;-35.248;149.138;2022-09-16T15:45:59;18.80;50.60
41533;DHT22;27262;-35.248;149.138;2022-09-16T15:48:35;18.80;50.50
41533;DHT22;27262;-35.248;149.138;2022-09-16T15:54:20;18.80;50.60
41533;DHT22;27262;-35.248;149.138;2022-09-16T15:57:11;18.70;50.70
41533;DHT22;27262;-35.248;149.138;2022-09-16T16:02:48;18.60;50.80
41533;DHT22;27262;-35.248;149.138;2022-09-16T16:05:26;18.60;50.80
41533;DHT22;27262;-35.248;149.138;2022-09-16T16:08:00;18.60;50.90
41533;DHT22;27262;-35.248;149.138;2022-09-16T16:10:36;18.60;50.90
41533;DHT22;27262;-35.248;149.138;2022-09-16T16:13:08;18.60;50.90
41533;DHT22;27262;-35.248;149.138;2022-09-16T16:15:39;18.60;50.90
41533;DHT22;27262;-35.248;149.138;2022-09-16T16:18:09;18.50;50.90
41533;DHT22;27262;-35.248;149.138;2022-09-16T16:20:40;18.50;50.90
41533;DHT22;27262;-35.248;149.138;2022-09-16T16:23:11;18.50;50.90
41533;DHT22;27262;-35.248;149.138;2022-09-16T16:25:42;18.50;51.00
41533;DHT22;27262;-35.248;149.138;2022-09-16T16:28:12;18.50;51.00
41533;DHT22;27262;-35.248;149.138;2022-09-16T16:30:42;18.40;51.00
41533;DHT22;27262;-35.248;149.138;2022-09-16T16:33:12;18.40;51.00
41533;DHT22;27262;-35.248;149.138;2022-09-16T16:35:43;18.40;51.10
41533;DHT22;27262;-35.248;149.138;2022-09-16T16:38:13;18.40;51.20
41533;DHT22;27262;-35.248;149.138;2022-09-16T16:40:49;18.40;51.20
41533;DHT22;27262;-35.248;149.138;2022-09-16T16:43:20;18.40;51.30
41533;DHT22;27262;-35.248;149.138;2022-09-16T16:45:54;18.30;51.30
41533;DHT22;27262;-35.248;149.138;2022-09-16T16:48:28;18.30;51.30
41533;DHT22;27262;-35.248;149.138;2022-09-16T16:51:01;18.30;51.40
41533;DHT22;27262;-35.248;149.138;2022-09-16T16:53:36;18.20;51.40
41533;DHT22;27262;-35.248;149.138;2022-09-16T16:56:08;18.20;51.40
41533;DHT22;27262;-35.248;149.138;2022-09-16T16:58:43;18.20;51.40
41533;DHT22;27262;-35.248;149.138;2022-09-16T17:01:15;18.20;51.50
41533;DHT22;27262;-35.248;149.138;2022-09-16T17:03:47;18.20;51.60
41533;DHT22;27262;-35.248;149.138;2022-09-16T17:06:18;18.10;51.50
41533;DHT22;27262;-35.248;149.138;2022-09-16T17:08:48;18.10;51.50
41533;DHT22;27262;-35.248;149.138;2022-09-16T17:11:19;18.10;51.50
41533;DHT22;27262;-35.248;149.138;2022-09-16T17:13:51;18.00;51.50
41533;DHT22;27262;-35.248;149.138;2022-09-16T17:16:22;18.10;51.60
41533;DHT22;27262;-35.248;149.138;2022-09-16T17:18:54;18.10;51.60
41533;DHT22;27262;-35.248;149.138;2022-09-16T17:21:30;18.00;51.60
41533;DHT22;27262;-35.248;149.138;2022-09-16T17:24:01;18.00;51.50
41533;DHT22;27262;-35.248;149.138;2022-09-16T17:26:32;18.00;51.60
41533;DHT22;27262;-35.248;149.138;2022-09-16T17:29:02;18.00;51.60
41533;DHT22;27262;-35.248;149.138;2022-09-16T17:31:42;18.00;51.70
41533;DHT22;27262;-35.248;149.138;2022-09-16T17:34:14;17.90;51.60
41533;DHT22;27262;-35.248;149.138;2022-09-16T17:36:46;17.90;51.60
41533;DHT22;27262;-35.248;149.138;2022-09-16T17:39:20;17.90;51.60
41533;DHT22;27262;-35.248;149.138;2022-09-16T17:41:51;17.90;51.60
41533;DHT22;27262;-35.248;149.138;2022-09-16T17:44:22;17.90;51.70
41533;DHT22;27262;-35.248;149.138;2022-09-16T17:46:53;17.80;51.70
41533;DHT22;27262;-35.248;149.138;2022-09-16T17:49:23;17.90;51.80
41533;DHT22;27262;-35.248;149.138;2022-09-16T17:51:54;17.80;51.70
41533;DHT22;27262;-35.248;149.138;2022-09-16T17:54:24;17.80;51.70
41533;DHT22;27262;-35.248;149.138;2022-09-16T17:56:54;17.80;51.80
41533;DHT22;27262;-35.248;149.138;2022-09-16T17:59:25;17.80;51.90
41533;DHT22;27262;-35.248;149.138;2022-09-16T18:01:55;17.70;51.80
41533;DHT22;27262;-35.248;149.138;2022-09-16T18:04:25;17.70;51.80
41533;DHT22;27262;-35.248;149.138;2022-09-16T18:06:55;17.70;51.90
41533;DHT22;27262;-35.248;149.138;2022-09-16T18:09:26;17.70;52.00
41533;DHT22;27262;-35.248;149.138;2022-09-16T18:11:57;17.70;52.00
41533;DHT22;27262;-35.248;149.138;2022-09-16T18:14:27;17.60;51.90
41533;DHT22;27262;-35.248;149.138;2022-09-16T18:16:57;17.60;51.90
41533;DHT22;27262;-35.248;149.138;2022-09-16T18:19:28;17.60;51.90
41533;DHT22;27262;-35.248;149.138;2022-09-16T18:21:58;17.60;51.90
41533;DHT22;27262;-35.248;149.138;2022-09-16T18:24:28;17.60;52.00
41533;DHT22;27262;-35.248;149.138;2022-09-16T18:26:58;17.60;51.90
41533;DHT22;27262;-35.248;149.138;2022-09-16T18:29:29;17.50;51.80
41533;DHT22;27262;-35.248;149.138;2022-09-16T18:31:59;17.50;51.80
41533;DHT22;27262;-35.248;149.138;2022-09-16T18:34:30;17.50;51.80
41533;DHT22;27262;-35.248;149.138;2022-09-16T18:37:00;17.50;51.80
41533;DHT22;27262;-35.248;149.138;2022-09-16T18:39:30;17.50;51.80
41533;DHT22;27262;-35.248;149.138;2022-09-16T18:42:01;17.50;51.80
41533;DHT22;27262;-35.248;149.138;2022-09-16T18:44:31;17.40;51.80
41533;DHT22;27262;-35.248;149.138;2022-09-16T18:47:01;17.40;51.80
41533;DHT22;27262;-35.248;149.138;2022-09-16T18:49:31;17.40;51.90
41533;DHT22;27262;-35.248;149.138;2022-09-16T18:52:01;17.40;51.90
41533;DHT22;27262;-35.248;149.138;2022-09-16T18:54:32;17.40;51.90
41533;DHT22;27262;-35.248;149.138;2022-09-16T18:57:02;17.30;52.00
41533;DHT22;27262;-35.248;149.138;2022-09-16T18:59:32;17.30;52.00
41533;DHT22;27262;-35.248;149.138;2022-09-16T19:02:05;17.30;52.00
41533;DHT22;27262;-35.248;149.138;2022-09-16T19:04:38;17.30;52.10